createdAt,value
2023-02-11T00:00:18.900Z,51.37
2023-02-11T00:01:18.893Z,47.85
2023-02-11T00:02:18.901Z,49.64
2023-02-11T00:03:18.926Z,54.98
2023-02-11T00:04:18.868Z,48.61
2023-02-11T00:05:18.876Z,48.13
2023-02-11T00:06:18.866Z,47.92
2023-02-11T00:07:18.869Z,51.00
2023-02-11T00:08:18.883Z,49.50
2023-02-11T00:09:18.848Z,48.61
2023-02-11T00:10:18.823Z,50.08
2023-02-11T00:11:18.827Z,48.51
2023-02-11T00:12:18.849Z,47.92
2023-02-11T00:13:18.836Z,50.06
2023-02-11T00:14:18.851Z,48.87
2023-02-11T00:15:18.821Z,47.56
2023-02-11T00:16:19.072Z,51.62
2023-02-11T00:17:18.782Z,49.89
2023-02-11T00:18:18.827Z,48.38
2023-02-11T00:19:18.802Z,48.65
2023-02-11T00:20:18.775Z,48.18
2023-02-11T00:21:18.808Z,49.72
2023-02-11T00:22:18.806Z,49.28
2023-02-11T00:23:18.740Z,47.05
2023-02-11T00:24:18.802Z,47.12
2023-02-11T00:25:18.770Z,47.13
2023-02-11T00:26:18.765Z,49.46
2023-02-11T00:27:18.734Z,48.48
2023-02-11T00:28:18.769Z,47.84
2023-02-11T00:29:18.700Z,47.68
2023-02-11T00:30:18.771Z,48.28
2023-02-11T00:31:18.854Z,50.32
2023-02-11T00:32:18.745Z,47.55
2023-02-11T00:33:18.677Z,48.32
2023-02-11T00:34:18.670Z,47.86
2023-02-11T00:35:18.734Z,49.40
2023-02-11T00:36:18.654Z,48.72
2023-02-11T00:37:18.689Z,47.11
2023-02-11T00:38:18.654Z,48.96
2023-02-11T00:39:18.648Z,49.43
2023-02-11T00:40:18.675Z,47.38
2023-02-11T00:41:18.691Z,51.52
2023-02-11T00:42:18.647Z,49.88
2023-02-11T00:43:18.633Z,49.08
2023-02-11T00:44:18.603Z,47.32
2023-02-11T00:45:18.625Z,48.37
2023-02-11T00:46:18.696Z,48.10
2023-02-11T00:47:18.617Z,48.66
2023-02-11T00:48:18.606Z,50.28
2023-02-11T00:49:18.574Z,53.37
2023-02-11T00:50:18.584Z,49.93
2023-02-11T00:51:18.590Z,52.83
2023-02-11T00:52:18.620Z,55.23
2023-02-11T00:53:18.563Z,48.51
2023-02-11T00:54:18.598Z,51.30
2023-02-11T00:55:18.543Z,48.13
2023-02-11T00:56:18.595Z,49.77
2023-02-11T00:57:18.529Z,47.29
2023-02-11T00:58:18.523Z,48.05
2023-02-11T00:59:18.534Z,47.55
2023-02-11T01:00:18.504Z,52.55
2023-02-11T01:01:18.651Z,48.34
2023-02-11T01:02:18.539Z,51.58
2023-02-11T01:03:18.504Z,49.16
2023-02-11T01:04:18.503Z,48.30
2023-02-11T01:05:18.527Z,48.84
2023-02-11T01:06:18.529Z,47.46
2023-02-11T01:07:18.470Z,48.74
2023-02-11T01:08:18.474Z,53.38
2023-02-11T01:09:18.470Z,51.35
2023-02-11T01:10:18.480Z,47.92
2023-02-11T01:11:18.478Z,51.43
2023-02-11T01:12:18.473Z,50.57
2023-02-11T01:13:18.422Z,47.99
2023-02-11T01:14:18.462Z,47.78
2023-02-11T01:15:18.438Z,47.56
2023-02-11T01:16:18.637Z,47.47
2023-02-11T01:17:18.424Z,48.27
2023-02-11T01:18:18.419Z,49.31
2023-02-11T01:19:18.412Z,49.05
2023-02-11T01:20:18.407Z,47.73
2023-02-11T01:21:18.417Z,47.54
2023-02-11T01:22:18.363Z,47.44
2023-02-11T01:23:18.376Z,47.74
2023-02-11T01:24:18.371Z,49.84
2023-02-11T01:25:18.359Z,49.17
2023-02-11T01:26:18.386Z,49.02
2023-02-11T01:27:18.349Z,47.58
2023-02-11T01:28:18.435Z,50.19
2023-02-11T01:29:18.355Z,49.91
2023-02-11T01:30:18.390Z,48.18
2023-02-11T01:31:18.457Z,47.52
2023-02-11T01:32:18.387Z,47.40
2023-02-11T01:33:18.342Z,49.07
2023-02-11T01:34:18.348Z,49.09
2023-02-11T01:35:18.329Z,51.34
2023-02-11T01:36:18.287Z,49.83
2023-02-11T01:37:18.272Z,48.89
2023-02-11T01:38:18.308Z,52.77
2023-02-11T01:39:18.281Z,52.34
2023-02-11T01:40:18.251Z,48.17
2023-02-11T01:41:18.263Z,48.80
2023-02-11T01:42:18.252Z,47.66
2023-02-11T01:43:18.289Z,47.36
2023-02-11T01:44:18.322Z,47.40
2023-02-11T01:45:18.243Z,48.15
2023-02-11T01:46:18.254Z,48.60
2023-02-11T01:47:18.235Z,52.42
2023-02-11T01:48:18.219Z,47.85
2023-02-11T01:49:18.315Z,47.52
2023-02-11T01:50:18.240Z,49.79
2023-02-11T01:51:18.254Z,50.11
2023-02-11T01:52:18.221Z,47.62
2023-02-11T01:53:18.199Z,47.77
2023-02-11T01:54:18.194Z,50.19
2023-02-11T01:55:18.205Z,48.39
2023-02-11T01:56:18.181Z,47.44
2023-02-11T01:57:18.168Z,47.34
2023-02-11T01:58:18.166Z,47.35
2023-02-11T01:59:18.191Z,48.82
2023-02-11T02:00:18.176Z,50.71
2023-02-11T02:01:18.193Z,47.30
2023-02-11T02:02:18.207Z,47.60
2023-02-11T02:03:18.173Z,48.76
2023-02-11T02:04:18.147Z,47.19
2023-02-11T02:05:18.131Z,51.12
2023-02-11T02:06:18.137Z,50.75
2023-02-11T02:07:18.112Z,50.23
2023-02-11T02:08:18.179Z,47.38
2023-02-11T02:09:18.118Z,49.50
2023-02-11T02:10:18.095Z,48.60
2023-02-11T02:11:18.137Z,49.00
2023-02-11T02:12:18.084Z,49.98
2023-02-11T02:13:18.056Z,47.35
2023-02-11T02:14:18.091Z,47.26
2023-02-11T02:15:18.101Z,48.17
2023-02-11T02:16:18.120Z,47.87
2023-02-11T02:17:18.066Z,47.32
2023-02-11T02:18:18.056Z,47.40
2023-02-11T02:19:18.088Z,47.43
2023-02-11T02:20:18.028Z,47.34
2023-02-11T02:21:18.019Z,47.33
2023-02-11T02:22:18.028Z,48.17
2023-02-11T02:23:18.042Z,47.60
2023-02-11T02:24:18.007Z,47.48
2023-02-11T02:25:18.018Z,47.77
2023-02-11T02:26:17.977Z,48.60
2023-02-11T02:27:18.015Z,52.31
2023-02-11T02:28:18.054Z,49.05
2023-02-11T02:29:17.976Z,48.63
2023-02-11T02:30:18.019Z,47.39
2023-02-11T02:31:17.987Z,47.55
2023-02-11T02:32:17.985Z,52.45
2023-02-11T02:33:23.616Z,47.71
2023-02-11T02:34:19.904Z,48.64
2023-02-11T02:35:17.943Z,49.22
2023-02-11T02:36:17.984Z,47.27
2023-02-11T02:37:17.954Z,48.29
2023-02-11T02:38:17.893Z,47.66
2023-02-11T02:39:17.880Z,49.91
2023-02-11T02:40:17.867Z,47.72
2023-02-11T02:41:17.886Z,49.01
2023-02-11T02:42:17.907Z,47.21
2023-02-11T02:43:17.887Z,48.35
2023-02-11T02:44:17.850Z,49.80
2023-02-11T02:45:17.886Z,47.42
2023-02-11T02:46:17.884Z,47.46
2023-02-11T02:47:17.849Z,47.73
2023-02-11T02:48:17.881Z,48.43
2023-02-11T02:49:17.848Z,48.32
2023-02-11T02:50:17.850Z,48.98
2023-02-11T02:51:17.883Z,47.54
2023-02-11T02:52:17.801Z,47.53
2023-02-11T02:53:17.845Z,49.49
2023-02-11T02:54:17.854Z,47.36
2023-02-11T02:55:17.780Z,47.67
2023-02-11T02:56:17.796Z,48.63
2023-02-11T02:57:17.795Z,50.93
2023-02-11T02:58:17.778Z,47.69
2023-02-11T02:59:17.793Z,47.32
2023-02-11T03:00:17.817Z,49.48
2023-02-11T03:01:17.760Z,47.34
2023-02-11T03:02:17.744Z,47.33
2023-02-11T03:03:17.741Z,48.37
2023-02-11T03:04:17.754Z,51.54
2023-02-11T03:05:17.761Z,47.85
2023-02-11T03:06:17.764Z,47.32
2023-02-11T03:07:17.697Z,47.44
2023-02-11T03:08:17.716Z,48.23
2023-02-11T03:09:17.704Z,47.65
2023-02-11T03:10:17.736Z,50.39
2023-02-11T03:11:17.691Z,51.34
2023-02-11T03:12:17.694Z,49.06
2023-02-11T03:13:17.698Z,48.28
2023-02-11T03:14:17.689Z,47.08
2023-02-11T03:15:17.702Z,48.43
2023-02-11T03:16:17.691Z,47.82
2023-02-11T03:17:18.652Z,47.60
2023-02-11T03:18:17.651Z,48.17
2023-02-11T03:19:17.640Z,47.34
2023-02-11T03:20:17.632Z,49.62
2023-02-11T03:21:17.689Z,50.08
2023-02-11T03:22:17.620Z,50.92
2023-02-11T03:23:17.642Z,53.41
2023-02-11T03:24:17.588Z,49.65
2023-02-11T03:25:17.627Z,47.18
2023-02-11T03:26:17.603Z,48.76
2023-02-11T03:27:17.591Z,47.24
2023-02-11T03:28:17.663Z,47.40
2023-02-11T03:29:17.570Z,48.54
2023-02-11T03:30:17.625Z,50.19
2023-02-11T03:31:17.698Z,50.95
2023-02-11T03:32:17.688Z,49.30
2023-02-11T03:33:17.534Z,52.45
2023-02-11T03:34:17.568Z,51.32
2023-02-11T03:35:17.579Z,48.23
2023-02-11T03:36:17.533Z,47.19
2023-02-11T03:37:17.542Z,47.96
2023-02-11T03:38:17.531Z,47.21
2023-02-11T03:39:17.518Z,49.12
2023-02-11T03:40:17.504Z,47.73
2023-02-11T03:41:17.527Z,51.78
2023-02-11T03:42:17.536Z,49.96
2023-02-11T03:43:17.558Z,49.45
2023-02-11T03:44:17.497Z,47.44
2023-02-11T03:45:17.503Z,47.36
2023-02-11T03:46:17.555Z,50.49
2023-02-11T03:47:17.480Z,53.53
2023-02-11T03:48:17.482Z,47.46
2023-02-11T03:49:17.465Z,47.33
2023-02-11T03:50:17.477Z,47.52
2023-02-11T03:51:17.456Z,49.08
2023-02-11T03:52:17.455Z,50.11
2023-02-11T03:53:17.478Z,49.48
2023-02-11T03:54:17.451Z,47.29
2023-02-11T03:55:17.403Z,49.36
2023-02-11T03:56:17.419Z,47.24
2023-02-11T03:57:17.405Z,47.20
2023-02-11T03:58:17.414Z,48.31
2023-02-11T03:59:17.394Z,52.56
2023-02-11T04:00:17.406Z,53.56
2023-02-11T04:01:17.397Z,47.55
2023-02-11T04:02:17.382Z,50.35
2023-02-11T04:03:17.498Z,46.86
2023-02-11T04:04:17.518Z,46.97
2023-02-11T04:05:17.389Z,47.52
2023-02-11T04:06:17.357Z,50.39
2023-02-11T04:07:17.332Z,47.66
2023-02-11T04:08:17.348Z,47.77
2023-02-11T04:09:17.344Z,47.98
2023-02-11T04:10:17.317Z,47.23
2023-02-11T04:11:17.319Z,47.52
2023-02-11T04:12:17.296Z,47.53
2023-02-11T04:13:17.306Z,47.27
2023-02-11T04:14:17.355Z,49.41
2023-02-11T04:15:17.305Z,48.08
2023-02-11T04:16:17.316Z,48.74
2023-02-11T04:17:17.258Z,47.11
2023-02-11T04:18:17.320Z,48.90
2023-02-11T04:19:17.291Z,47.48
2023-02-11T04:20:17.545Z,49.09
2023-02-11T04:21:17.306Z,47.54
2023-02-11T04:22:17.304Z,50.55
2023-02-11T04:23:17.275Z,47.66
2023-02-11T04:24:17.247Z,50.50
2023-02-11T04:25:17.289Z,52.08
2023-02-11T04:26:17.247Z,49.65
2023-02-11T04:27:17.218Z,47.64
2023-02-11T04:28:17.298Z,52.09
2023-02-11T04:29:18.198Z,50.86
2023-02-11T04:30:17.248Z,49.13
2023-02-11T04:31:17.243Z,50.21
2023-02-11T04:32:17.167Z,49.56
2023-02-11T04:33:17.270Z,49.71
2023-02-11T04:34:17.200Z,49.19
2023-02-11T04:35:17.212Z,48.12
2023-02-11T04:36:17.310Z,49.09
2023-02-11T04:37:17.148Z,47.71
2023-02-11T04:38:17.165Z,51.31
2023-02-11T04:39:17.098Z,49.32
2023-02-11T04:40:17.159Z,50.39
2023-02-11T04:41:17.107Z,49.88
2023-02-11T04:42:18.114Z,48.19
2023-02-11T04:43:17.146Z,48.02
2023-02-11T04:44:17.113Z,47.79
2023-02-11T04:45:17.102Z,47.99
2023-02-11T04:46:17.131Z,48.22
2023-02-11T04:47:17.075Z,52.37
2023-02-11T04:48:17.151Z,48.95
2023-02-11T04:49:17.107Z,49.02
2023-02-11T04:50:17.074Z,49.27
2023-02-11T04:51:17.072Z,48.37
2023-02-11T04:52:17.045Z,48.96
2023-02-11T04:53:17.066Z,49.58
2023-02-11T04:54:17.116Z,47.70
2023-02-11T04:55:17.033Z,48.51
2023-02-11T04:56:17.075Z,48.23
2023-02-11T04:57:17.025Z,49.11
2023-02-11T04:58:17.026Z,47.77
2023-02-11T04:59:18.477Z,53.61
2023-02-11T05:00:17.065Z,49.88
2023-02-11T05:01:17.213Z,51.56
2023-02-11T05:02:16.979Z,48.58
2023-02-11T05:03:16.986Z,49.24
2023-02-11T05:04:17.154Z,48.71
2023-02-11T05:05:16.992Z,48.45
2023-02-11T05:06:16.978Z,49.10
2023-02-11T05:07:16.968Z,51.33
2023-02-11T05:08:16.975Z,47.99
2023-02-11T05:09:16.977Z,47.66
2023-02-11T05:10:16.946Z,49.17
2023-02-11T05:11:16.939Z,54.78
2023-02-11T05:12:16.927Z,50.58
2023-02-11T05:13:16.951Z,48.19
2023-02-11T05:14:16.916Z,49.48
2023-02-11T05:15:16.928Z,49.47
2023-02-11T05:16:16.973Z,48.42
2023-02-11T05:17:16.897Z,54.18
2023-02-11T05:18:16.905Z,53.22
2023-02-11T05:19:16.901Z,50.86
2023-02-11T05:20:16.862Z,48.40
2023-02-11T05:21:16.888Z,47.30
2023-02-11T05:22:16.876Z,48.26
2023-02-11T05:23:16.860Z,49.46
2023-02-11T05:24:16.882Z,49.47
2023-02-11T05:25:16.843Z,51.37
2023-02-11T05:26:16.907Z,49.99
2023-02-11T05:27:16.843Z,50.73
2023-02-11T05:28:16.844Z,47.45
2023-02-11T05:29:16.831Z,50.20
2023-02-11T05:30:16.816Z,48.86
2023-02-11T05:31:16.938Z,52.03
2023-02-11T05:32:16.837Z,48.60
2023-02-11T05:33:16.797Z,47.51
2023-02-11T05:34:16.804Z,50.04
2023-02-11T05:35:16.793Z,48.02
2023-02-11T05:36:16.808Z,47.99
2023-02-11T05:37:16.842Z,51.61
2023-02-11T05:38:16.762Z,51.77
2023-02-11T05:39:16.748Z,53.96
2023-02-11T05:40:16.751Z,51.78
2023-02-11T05:41:16.789Z,50.21
2023-02-11T05:42:16.800Z,52.27
2023-02-11T05:43:16.749Z,49.25
2023-02-11T05:44:16.737Z,47.53
2023-02-11T05:45:16.742Z,47.63
2023-02-11T05:46:16.829Z,50.87
2023-02-11T05:47:16.774Z,49.29
2023-02-11T05:48:16.688Z,52.43
2023-02-11T05:49:16.717Z,50.36
2023-02-11T05:50:16.677Z,51.61
2023-02-11T05:51:16.671Z,51.44
2023-02-11T05:52:16.705Z,50.92
2023-02-11T05:53:16.658Z,49.33
2023-02-11T05:54:16.702Z,48.63
2023-02-11T05:55:16.651Z,48.10
2023-02-11T05:56:16.676Z,49.89
2023-02-11T05:57:16.662Z,50.65
2023-02-11T05:58:16.646Z,53.15
2023-02-11T05:59:16.645Z,51.49
2023-02-11T06:00:16.661Z,54.88
2023-02-11T06:01:16.599Z,54.06
2023-02-11T06:02:16.705Z,51.35
2023-02-11T06:03:16.696Z,52.76
2023-02-11T06:04:16.626Z,52.85
2023-02-11T06:05:16.685Z,50.45
2023-02-11T06:06:16.599Z,55.55
2023-02-11T06:07:16.620Z,51.49
2023-02-11T06:08:16.586Z,51.87
2023-02-11T06:09:16.597Z,49.56
2023-02-11T06:10:17.559Z,49.98
2023-02-11T06:11:16.564Z,52.79
2023-02-11T06:12:16.584Z,52.18
2023-02-11T06:13:16.533Z,49.93
2023-02-11T06:14:16.580Z,49.86
2023-02-11T06:15:16.568Z,48.54
2023-02-11T06:16:16.588Z,49.31
2023-02-11T06:17:16.517Z,51.87
2023-02-11T06:18:16.542Z,51.41
2023-02-11T06:19:16.562Z,49.41
2023-02-11T06:20:16.505Z,48.98
2023-02-11T06:21:16.505Z,48.86
2023-02-11T06:22:16.464Z,50.47
2023-02-11T06:23:16.499Z,51.16
2023-02-11T06:24:28.571Z,51.76
2023-02-11T06:25:18.452Z,49.42
2023-02-11T06:26:16.510Z,52.28
2023-02-11T06:27:16.482Z,53.39
2023-02-11T06:28:20.996Z,50.09
2023-02-11T06:29:18.955Z,49.72
2023-02-11T06:30:17.211Z,53.34
2023-02-11T06:31:19.882Z,48.60
2023-02-11T06:32:36.907Z,51.73
2023-02-11T06:33:18.624Z,51.00
2023-02-11T06:34:16.435Z,52.33
2023-02-11T06:35:16.432Z,55.82
2023-02-11T06:36:18.711Z,50.71
2023-02-11T06:37:17.389Z,51.04
2023-02-11T06:38:16.386Z,51.64
2023-02-11T06:39:16.382Z,54.12
2023-02-11T06:40:16.385Z,49.22
2023-02-11T06:41:16.503Z,50.79
2023-02-11T06:42:16.337Z,52.13
2023-02-11T06:43:16.361Z,52.63
2023-02-11T06:44:16.332Z,52.09
2023-02-11T06:45:16.341Z,52.74
2023-02-11T06:46:16.354Z,51.05
2023-02-11T06:47:16.340Z,52.74
2023-02-11T06:48:16.358Z,54.24
2023-02-11T06:49:16.307Z,52.49
2023-02-11T06:50:16.302Z,51.83
2023-02-11T06:51:16.275Z,51.29
2023-02-11T06:52:16.290Z,54.19
2023-02-11T06:53:16.291Z,50.26
2023-02-11T06:54:16.285Z,53.06
2023-02-11T06:55:16.302Z,53.48
2023-02-11T06:56:16.265Z,52.73
2023-02-11T06:57:16.269Z,52.38
2023-02-11T06:58:16.260Z,50.58
2023-02-11T06:59:16.297Z,50.71
2023-02-11T07:00:16.262Z,53.85
2023-02-11T07:01:16.254Z,53.17
2023-02-11T07:02:17.516Z,59.88
2023-02-11T07:03:16.306Z,60.09
2023-02-11T07:04:16.254Z,59.11
2023-02-11T07:05:16.225Z,50.37
2023-02-11T07:06:16.199Z,51.44
2023-02-11T07:07:16.249Z,49.00
2023-02-11T07:08:16.197Z,51.11
2023-02-11T07:09:16.230Z,52.53
2023-02-11T07:10:16.165Z,50.55
2023-02-11T07:11:16.202Z,51.25
2023-02-11T07:12:16.185Z,49.34
2023-02-11T07:13:16.180Z,52.44
2023-02-11T07:14:16.172Z,52.22
2023-02-11T07:15:16.144Z,51.62
2023-02-11T07:16:16.155Z,51.66
2023-02-11T07:17:16.131Z,56.01
2023-02-11T07:18:16.180Z,51.60
2023-02-11T07:19:16.197Z,53.31
2023-02-11T07:20:16.106Z,52.65
2023-02-11T07:21:16.095Z,52.49
2023-02-11T07:22:16.090Z,52.43
2023-02-11T07:23:16.158Z,50.44
2023-02-11T07:24:16.068Z,53.92
2023-02-11T07:25:16.085Z,51.53
2023-02-11T07:26:17.047Z,51.95
2023-02-11T07:27:16.086Z,50.11
2023-02-11T07:28:16.172Z,51.99
2023-02-11T07:29:16.076Z,51.37
2023-02-11T07:30:16.057Z,53.22
2023-02-11T07:31:16.126Z,53.66
2023-02-11T07:32:16.129Z,52.42
2023-02-11T07:33:16.060Z,54.22
2023-02-11T07:34:16.055Z,53.55
2023-02-11T07:35:16.022Z,52.69
2023-02-11T07:36:16.003Z,52.92
2023-02-11T07:37:21.026Z,54.15
2023-02-11T07:38:18.402Z,53.70
2023-02-11T07:39:17.212Z,51.51
2023-02-11T07:40:16.840Z,52.26
2023-02-11T07:41:15.994Z,55.62
2023-02-11T07:42:15.989Z,52.65
2023-02-11T07:43:16.039Z,52.80
2023-02-11T07:44:16.043Z,55.67
2023-02-11T07:45:15.996Z,52.69
2023-02-11T07:46:15.976Z,52.79
2023-02-11T07:47:15.934Z,51.54
2023-02-11T07:48:15.925Z,51.15
2023-02-11T07:49:15.954Z,51.29
2023-02-11T07:50:15.935Z,52.39
2023-02-11T07:51:15.916Z,52.20
2023-02-11T07:52:15.891Z,57.76
2023-02-11T07:53:15.891Z,55.82
2023-02-11T07:54:15.916Z,52.56
2023-02-11T07:55:15.915Z,52.18
2023-02-11T07:56:15.861Z,54.11
2023-02-11T07:57:16.893Z,53.56
2023-02-11T07:58:15.853Z,55.20
2023-02-11T07:59:15.867Z,52.18
2023-02-11T08:00:15.842Z,52.12
2023-02-11T08:01:15.895Z,53.12
2023-02-11T08:02:15.873Z,53.24
2023-02-11T08:03:15.861Z,54.05
2023-02-11T08:04:15.807Z,51.28
2023-02-11T08:05:15.833Z,54.05
2023-02-11T08:06:15.842Z,53.68
2023-02-11T08:07:15.842Z,54.01
2023-02-11T08:08:15.805Z,51.54
2023-02-11T08:09:15.841Z,52.80
2023-02-11T08:10:15.787Z,55.98
2023-02-11T08:11:15.778Z,52.02
2023-02-11T08:12:15.932Z,53.78
2023-02-11T08:13:15.778Z,53.10
2023-02-11T08:14:15.746Z,51.21
2023-02-11T08:15:15.757Z,53.62
2023-02-11T08:16:15.786Z,53.10
2023-02-11T08:17:15.758Z,54.84
2023-02-11T08:18:15.777Z,52.65
2023-02-11T08:19:15.903Z,53.41
2023-02-11T08:20:15.719Z,51.69
2023-02-11T08:21:15.733Z,56.15
2023-02-11T08:22:15.725Z,55.42
2023-02-11T08:23:15.726Z,51.22
2023-02-11T08:24:15.788Z,54.09
2023-02-11T08:25:15.699Z,55.03
2023-02-11T08:26:15.684Z,53.34
2023-02-11T08:27:15.678Z,56.69
2023-02-11T08:28:15.738Z,53.84
2023-02-11T08:29:15.801Z,52.67
2023-02-11T08:30:15.810Z,55.79
2023-02-11T08:31:15.736Z,52.66
2023-02-11T08:32:15.747Z,55.14
2023-02-11T08:33:15.662Z,55.41
2023-02-11T08:34:15.624Z,54.45
2023-02-11T08:35:15.691Z,55.53
2023-02-11T08:36:15.617Z,54.46
2023-02-11T08:37:15.638Z,55.21
2023-02-11T08:38:15.597Z,55.90
2023-02-11T08:39:19.791Z,55.98
2023-02-11T08:40:16.745Z,53.76
2023-02-11T08:41:15.609Z,55.37
2023-02-11T08:42:15.621Z,55.77
2023-02-11T08:43:15.585Z,54.17
2023-02-11T08:44:15.610Z,53.33
2023-02-11T08:45:15.571Z,55.11
2023-02-11T08:46:16.641Z,54.29
2023-02-11T08:47:15.566Z,54.98
2023-02-11T08:48:15.551Z,58.02
2023-02-11T08:49:15.546Z,55.57
2023-02-11T08:50:15.569Z,55.98
2023-02-11T08:51:15.568Z,55.34
2023-02-11T08:52:15.518Z,55.39
2023-02-11T08:53:15.551Z,54.67
2023-02-11T08:54:15.526Z,53.74
2023-02-11T08:55:16.509Z,57.49
2023-02-11T08:56:15.593Z,55.03
2023-02-11T08:57:15.500Z,55.96
2023-02-11T08:58:18.117Z,55.09
2023-02-11T08:59:15.554Z,54.95
2023-02-11T09:00:15.488Z,56.12
2023-02-11T09:01:15.566Z,55.08
2023-02-11T09:02:15.487Z,55.79
2023-02-11T09:03:15.455Z,56.32
2023-02-11T09:04:15.439Z,54.54
2023-02-11T09:05:15.486Z,56.40
2023-02-11T09:06:15.552Z,53.96
2023-02-11T09:07:15.462Z,54.73
2023-02-11T09:08:15.440Z,54.96
2023-02-11T09:09:15.423Z,55.01
2023-02-11T09:10:15.515Z,55.76
2023-02-11T09:11:15.582Z,54.33
2023-02-11T09:12:15.407Z,55.24
2023-02-11T09:13:15.418Z,56.82
2023-02-11T09:14:15.414Z,56.06
2023-02-11T09:15:15.384Z,54.55
2023-02-11T09:16:15.531Z,53.42
2023-02-11T09:17:15.394Z,53.85
2023-02-11T09:18:15.353Z,53.49
2023-02-11T09:19:15.353Z,56.14
2023-02-11T09:20:15.356Z,54.59
2023-02-11T09:21:15.365Z,56.37
2023-02-11T09:22:15.362Z,53.91
2023-02-11T09:23:17.625Z,52.37
2023-02-11T09:24:15.324Z,53.05
2023-02-11T09:25:15.349Z,54.57
2023-02-11T09:26:15.297Z,52.94
2023-02-11T09:27:15.318Z,53.85
2023-02-11T09:28:15.471Z,53.76
2023-02-11T09:29:15.297Z,54.69
2023-02-11T09:30:15.286Z,54.68
2023-02-11T09:31:15.457Z,55.19
2023-02-11T09:32:15.427Z,54.34
2023-02-11T09:33:15.308Z,52.54
2023-02-11T09:34:15.261Z,52.68
2023-02-11T09:35:15.276Z,53.30
2023-02-11T09:36:15.274Z,52.61
2023-02-11T09:37:15.233Z,55.65
2023-02-11T09:38:15.232Z,54.88
2023-02-11T09:39:15.265Z,53.55
2023-02-11T09:40:15.223Z,53.12
2023-02-11T09:41:15.214Z,53.97
2023-02-11T09:42:15.208Z,54.61
2023-02-11T09:43:15.213Z,52.94
2023-02-11T09:44:15.225Z,55.76
2023-02-11T09:45:15.186Z,53.29
2023-02-11T09:46:15.229Z,55.67
2023-02-11T09:47:15.166Z,54.27
2023-02-11T09:48:15.171Z,55.74
2023-02-11T09:49:15.185Z,55.03
2023-02-11T09:50:15.176Z,53.78
2023-02-11T09:51:15.136Z,55.47
2023-02-11T09:52:15.156Z,52.62
2023-02-11T09:53:15.198Z,54.24
2023-02-11T09:54:15.144Z,57.99
2023-02-11T09:55:15.192Z,52.24
2023-02-11T09:56:15.135Z,53.38
2023-02-11T09:57:27.975Z,54.86
2023-02-11T09:58:17.108Z,55.55
2023-02-11T09:59:15.100Z,54.47
2023-02-11T10:00:15.252Z,55.04
2023-02-11T10:01:15.141Z,58.19
2023-02-11T10:02:15.100Z,60.88
2023-02-11T10:03:15.090Z,60.59
2023-02-11T10:04:15.208Z,59.64
2023-02-11T10:05:15.072Z,54.46
2023-02-11T10:06:15.152Z,53.15
2023-02-11T10:07:15.089Z,54.22
2023-02-11T10:08:16.932Z,56.66
2023-02-11T10:09:16.086Z,54.38
2023-02-11T10:10:15.073Z,55.52
2023-02-11T10:11:29.529Z,55.85
2023-02-11T10:12:17.081Z,56.89
2023-02-11T10:13:15.027Z,55.59
2023-02-11T10:14:15.143Z,55.73
2023-02-11T10:15:15.043Z,53.11
2023-02-11T10:16:15.162Z,55.68
2023-02-11T10:17:15.011Z,54.77
2023-02-11T10:18:15.022Z,54.17
2023-02-11T10:19:14.996Z,54.36
2023-02-11T10:20:16.933Z,54.89
2023-02-11T10:21:15.981Z,54.32
2023-02-11T10:22:14.983Z,54.67
2023-02-11T10:23:14.960Z,54.13
2023-02-11T10:24:14.978Z,55.48
2023-02-11T10:25:15.002Z,54.53
2023-02-11T10:26:14.938Z,54.42
2023-02-11T10:27:15.159Z,55.11
2023-02-11T10:28:14.961Z,55.02
2023-02-11T10:29:14.988Z,55.18
2023-02-11T10:30:15.077Z,56.39
2023-02-11T10:31:15.022Z,55.74
2023-02-11T10:32:15.013Z,55.74
2023-02-11T10:33:14.919Z,57.76
2023-02-11T10:34:14.887Z,57.49
2023-02-11T10:35:15.898Z,56.99
2023-02-11T10:36:14.935Z,54.02
2023-02-11T10:37:14.893Z,54.55
2023-02-11T10:38:14.875Z,55.42
2023-02-11T10:39:14.879Z,55.76
2023-02-11T10:40:14.880Z,55.96
2023-02-11T10:41:14.891Z,56.53
2023-02-11T10:42:14.855Z,57.08
2023-02-11T10:43:14.878Z,54.60
2023-02-11T10:44:14.860Z,56.21
2023-02-11T10:45:14.884Z,56.67
2023-02-11T10:46:14.930Z,54.57
2023-02-11T10:47:14.840Z,55.32
2023-02-11T10:48:16.440Z,54.58
2023-02-11T10:49:15.794Z,56.85
2023-02-11T10:50:14.801Z,54.84
2023-02-11T10:51:14.827Z,56.34
2023-02-11T10:52:14.787Z,56.11
2023-02-11T10:53:14.893Z,55.83
2023-02-11T10:54:14.784Z,56.38
2023-02-11T10:55:14.769Z,56.20
2023-02-11T10:56:14.801Z,56.98
2023-02-11T10:57:14.780Z,57.16
2023-02-11T10:58:14.763Z,54.06
2023-02-11T10:59:14.876Z,54.04
2023-02-11T11:00:14.751Z,53.44
2023-02-11T11:01:24.408Z,55.21
2023-02-11T11:02:16.732Z,57.48
2023-02-11T11:03:14.792Z,53.96
2023-02-11T11:04:14.809Z,53.66
2023-02-11T11:05:14.703Z,54.07
2023-02-11T11:06:14.730Z,54.03
2023-02-11T11:07:14.715Z,53.33
2023-02-11T11:08:14.691Z,53.37
2023-02-11T11:09:14.708Z,53.01
2023-02-11T11:10:14.690Z,56.05
2023-02-11T11:11:14.767Z,56.42
2023-02-11T11:12:14.867Z,52.68
2023-02-11T11:13:14.695Z,55.23
2023-02-11T11:14:14.736Z,56.02
2023-02-11T11:15:14.686Z,53.74
2023-02-11T11:16:14.821Z,54.00
2023-02-11T11:17:14.674Z,52.46
2023-02-11T11:18:21.281Z,55.41
2023-02-11T11:19:16.743Z,53.99
2023-02-11T11:20:14.690Z,54.34
2023-02-11T11:21:14.654Z,52.41
2023-02-11T11:22:14.675Z,52.77
2023-02-11T11:23:14.615Z,53.02
2023-02-11T11:24:14.616Z,54.46
2023-02-11T11:25:17.825Z,53.34
2023-02-11T11:26:15.632Z,52.70
2023-02-11T11:27:14.623Z,53.55
2023-02-11T11:28:14.788Z,51.18
2023-02-11T11:29:14.630Z,55.53
2023-02-11T11:30:14.648Z,53.65
2023-02-11T11:31:14.714Z,51.86
2023-02-11T11:32:14.604Z,51.74
2023-02-11T11:33:14.589Z,53.84
2023-02-11T11:34:14.599Z,54.63
2023-02-11T11:35:14.581Z,56.53
2023-02-11T11:36:14.559Z,56.35
2023-02-11T11:37:14.787Z,54.87
2023-02-11T11:38:14.573Z,55.99
2023-02-11T11:39:14.529Z,54.12
2023-02-11T11:40:14.526Z,53.92
2023-02-11T11:41:14.534Z,52.85
2023-02-11T11:42:14.580Z,54.50
2023-02-11T11:43:14.768Z,55.21
2023-02-11T11:44:14.551Z,58.05
2023-02-11T11:45:14.597Z,54.78
2023-02-11T11:46:14.536Z,53.36
2023-02-11T11:47:14.522Z,55.83
2023-02-11T11:48:14.561Z,56.08
2023-02-11T11:49:14.546Z,56.54
2023-02-11T11:50:14.493Z,53.34
2023-02-11T11:51:14.513Z,52.39
2023-02-11T11:52:14.468Z,53.55
2023-02-11T11:53:14.496Z,53.64
2023-02-11T11:54:14.485Z,52.86
2023-02-11T11:55:14.468Z,52.71
2023-02-11T11:56:14.444Z,49.89
2023-02-11T11:57:14.439Z,52.93
2023-02-11T11:58:14.517Z,57.25
2023-02-11T11:59:14.466Z,58.40
2023-02-11T12:00:14.600Z,53.11
2023-02-11T12:01:14.534Z,51.27
2023-02-11T12:02:14.883Z,53.19
2023-02-11T12:03:14.526Z,53.66
2023-02-11T12:04:14.429Z,52.96
2023-02-11T12:05:14.425Z,51.84
2023-02-11T12:06:14.420Z,54.25
2023-02-11T12:07:14.403Z,52.70
2023-02-11T12:08:14.404Z,53.01
2023-02-11T12:09:14.410Z,54.92
2023-02-11T12:10:14.442Z,54.59
2023-02-11T12:11:14.434Z,52.32
2023-02-11T12:12:14.467Z,52.69
2023-02-11T12:13:14.363Z,52.42
2023-02-11T12:14:14.409Z,52.52
2023-02-11T12:15:14.357Z,54.30
2023-02-11T12:16:14.458Z,53.55
2023-02-11T12:17:14.363Z,52.22
2023-02-11T12:18:14.340Z,54.58
2023-02-11T12:19:14.372Z,52.92
2023-02-11T12:20:14.436Z,54.11
2023-02-11T12:21:14.315Z,53.04
2023-02-11T12:22:14.320Z,53.34
2023-02-11T12:23:14.311Z,54.05
2023-02-11T12:24:17.196Z,54.16
2023-02-11T12:25:15.295Z,52.17
2023-02-11T12:26:14.304Z,51.09
2023-02-11T12:27:14.339Z,53.96
2023-02-11T12:28:14.350Z,51.65
2023-02-11T12:29:14.281Z,54.20
2023-02-11T12:30:14.364Z,55.54
2023-02-11T12:31:14.377Z,53.77
2023-02-11T12:32:14.425Z,52.52
2023-02-11T12:33:14.267Z,54.10
2023-02-11T12:34:14.264Z,55.10
2023-02-11T12:35:14.273Z,53.44
2023-02-11T12:36:14.252Z,55.21
2023-02-11T12:37:14.289Z,54.47
2023-02-11T12:38:14.244Z,51.52
2023-02-11T12:39:14.237Z,53.47
2023-02-11T12:40:14.268Z,51.56
2023-02-11T12:41:14.256Z,55.91
2023-02-11T12:42:14.265Z,55.49
2023-02-11T12:43:14.241Z,53.18
2023-02-11T12:44:14.270Z,53.38
2023-02-11T12:45:14.228Z,54.48
2023-02-11T12:46:14.295Z,51.88
2023-02-11T12:47:14.268Z,50.79
2023-02-11T12:48:14.774Z,50.55
2023-02-11T12:49:14.202Z,50.94
2023-02-11T12:50:14.208Z,53.57
2023-02-11T12:51:14.247Z,54.30
2023-02-11T12:52:14.192Z,51.86